sensor_id;sensor_type;location;lat;lon;timestamp;P1;durP1;ratioP1;P2;durP2;ratioP2
49784;SDS011;35679;38.732;-121.358;2022-08-19T00:00:22;7.50;;;5.82;;
49784;SDS011;35679;38.732;-121.358;2022-08-19T00:03:11;6.93;;;6.20;;
49784;SDS011;35679;38.732;-121.358;2022-08-19T00:06:01;7.05;;;5.90;;
49784;SDS011;35679;38.732;-121.358;2022-08-19T00:08:51;7.10;;;6.00;;
49784;SDS011;35679;38.732;-121.358;2022-08-19T00:11:41;7.47;;;6.30;;
49784;SDS011;35679;38.732;-121.358;2022-08-19T00:14:31;7.57;;;6.00;;
49784;SDS011;35679;38.732;-121.358;2022-08-19T00:17:21;6.70;;;5.93;;
49784;SDS011;35679;38.732;-121.358;2022-08-19T00:20:11;7.28;;;5.90;;
49784;SDS011;35679;38.732;-121.358;2022-08-19T00:23:05;7.38;;;5.95;;
49784;SDS011;35679;38.732;-121.358;2022-08-19T00:25:55;7.53;;;5.68;;
49784;SDS011;35679;38.732;-121.358;2022-08-19T00:28:45;8.43;;;5.63;;
49784;SDS011;35679;38.732;-121.358;2022-08-19T00:31:35;6.35;;;5.65;;
49784;SDS011;35679;38.732;-121.358;2022-08-19T00:34:25;6.63;;;5.78;;
49784;SDS011;35679;38.732;-121.358;2022-08-19T00:37:19;6.55;;;5.85;;
49784;SDS011;35679;38.732;-121.358;2022-08-19T00:40:11;6.00;;;5.22;;
49784;SDS011;35679;38.732;-121.358;2022-08-19T00:43:01;7.07;;;5.63;;
49784;SDS011;35679;38.732;-121.358;2022-08-19T00:45:57;7.50;;;5.95;;
49784;SDS011;35679;38.732;-121.358;2022-08-19T00:48:47;6.00;;;5.40;;
49784;SDS011;35679;38.732;-121.358;2022-08-19T00:51:36;7.13;;;6.00;;
49784;SDS011;35679;38.732;-121.358;2022-08-19T00:54:26;6.57;;;5.80;;
49784;SDS011;35679;38.732;-121.358;2022-08-19T00:57:18;7.25;;;5.75;;
49784;SDS011;35679;38.732;-121.358;2022-08-19T01:00:17;6.60;;;5.10;;
49784;SDS011;35679;38.732;-121.358;2022-08-19T01:03:09;7.50;;;5.17;;
49784;SDS011;35679;38.732;-121.358;2022-08-19T01:06:05;6.18;;;5.50;;
49784;SDS011;35679;38.732;-121.358;2022-08-19T01:08:55;7.00;;;5.70;;
49784;SDS011;35679;38.732;-121.358;2022-08-19T01:11:44;7.65;;;5.88;;
49784;SDS011;35679;38.732;-121.358;2022-08-19T01:14:34;5.82;;;4.97;;
49784;SDS011;35679;38.732;-121.358;2022-08-19T01:17:26;5.78;;;5.18;;
49784;SDS011;35679;38.732;-121.358;2022-08-19T01:20:19;6.05;;;5.40;;
49784;SDS011;35679;38.732;-121.358;2022-08-19T01:23:10;6.10;;;5.50;;
49784;SDS011;35679;38.732;-121.358;2022-08-19T01:26:00;6.70;;;5.65;;
49784;SDS011;35679;38.732;-121.358;2022-08-19T01:28:51;6.25;;;5.25;;
49784;SDS011;35679;38.732;-121.358;2022-08-19T01:31:47;5.70;;;5.10;;
49784;SDS011;35679;38.732;-121.358;2022-08-19T01:34:37;7.07;;;5.20;;
49784;SDS011;35679;38.732;-121.358;2022-08-19T01:37:27;6.93;;;5.65;;
49784;SDS011;35679;38.732;-121.358;2022-08-19T01:40:19;7.55;;;5.88;;
49784;SDS011;35679;38.732;-121.358;2022-08-19T01:43:10;5.78;;;5.10;;
49784;SDS011;35679;38.732;-121.358;2022-08-19T01:45:59;6.30;;;5.35;;
49784;SDS011;35679;38.732;-121.358;2022-08-19T01:48:50;6.32;;;5.30;;
49784;SDS011;35679;38.732;-121.358;2022-08-19T01:51:39;6.82;;;5.10;;
49784;SDS011;35679;38.732;-121.358;2022-08-19T01:54:29;6.93;;;5.28;;
49784;SDS011;35679;38.732;-121.358;2022-08-19T01:57:18;5.88;;;5.20;;
49784;SDS011;35679;38.732;-121.358;2022-08-19T02:00:09;6.90;;;5.38;;
49784;SDS011;35679;38.732;-121.358;2022-08-19T02:03:01;5.97;;;5.40;;
49784;SDS011;35679;38.732;-121.358;2022-08-19T02:05:54;6.20;;;5.60;;
49784;SDS011;35679;38.732;-121.358;2022-08-19T02:08:45;6.65;;;5.43;;
49784;SDS011;35679;38.732;-121.358;2022-08-19T02:11:38;5.97;;;5.32;;
49784;SDS011;35679;38.732;-121.358;2022-08-19T02:14:27;7.15;;;5.47;;
49784;SDS011;35679;38.732;-121.358;2022-08-19T02:17:17;6.40;;;5.30;;
49784;SDS011;35679;38.732;-121.358;2022-08-19T02:20:07;6.88;;;4.93;;
49784;SDS011;35679;38.732;-121.358;2022-08-19T02:22:57;7.25;;;5.80;;
49784;SDS011;35679;38.732;-121.358;2022-08-19T02:25:47;6.13;;;5.45;;
49784;SDS011;35679;38.732;-121.358;2022-08-19T02:28:37;5.72;;;5.18;;
49784;SDS011;35679;38.732;-121.358;2022-08-19T02:31:28;6.07;;;5.47;;
49784;SDS011;35679;38.732;-121.358;2022-08-19T02:34:18;6.03;;;5.32;;
49784;SDS011;35679;38.732;-121.358;2022-08-19T02:37:08;6.43;;;5.28;;
49784;SDS011;35679;38.732;-121.358;2022-08-19T02:40:21;6.68;;;5.40;;
49784;SDS011;35679;38.732;-121.358;2022-08-19T02:43:11;10.48;;;5.40;;
49784;SDS011;35679;38.732;-121.358;2022-08-19T02:46:00;6.70;;;5.82;;
49784;SDS011;35679;38.732;-121.358;2022-08-19T02:48:51;5.47;;;4.82;;
49784;SDS011;35679;38.732;-121.358;2022-08-19T02:51:44;5.65;;;5.05;;
49784;SDS011;35679;38.732;-121.358;2022-08-19T02:54:34;6.95;;;5.43;;
49784;SDS011;35679;38.732;-121.358;2022-08-19T02:57:24;6.65;;;5.60;;
49784;SDS011;35679;38.732;-121.358;2022-08-19T03:00:13;6.95;;;5.25;;
49784;SDS011;35679;38.732;-121.358;2022-08-19T03:03:03;5.60;;;4.85;;
49784;SDS011;35679;38.732;-121.358;2022-08-19T03:06:02;6.63;;;5.63;;
49784;SDS011;35679;38.732;-121.358;2022-08-19T03:08:57;6.03;;;5.43;;
49784;SDS011;35679;38.732;-121.358;2022-08-19T03:11:46;5.80;;;5.18;;
49784;SDS011;35679;38.732;-121.358;2022-08-19T03:14:39;5.80;;;5.20;;
49784;SDS011;35679;38.732;-121.358;2022-08-19T03:17:28;5.93;;;5.25;;
49784;SDS011;35679;38.732;-121.358;2022-08-19T03:20:18;7.28;;;5.43;;
49784;SDS011;35679;38.732;-121.358;2022-08-19T03:23:07;6.00;;;5.40;;
49784;SDS011;35679;38.732;-121.358;2022-08-19T03:25:56;6.10;;;5.07;;
49784;SDS011;35679;38.732;-121.358;2022-08-19T03:29:03;6.43;;;5.70;;
49784;SDS011;35679;38.732;-121.358;2022-08-19T03:34:44;7.45;;;5.20;;
49784;SDS011;35679;38.732;-121.358;2022-08-19T03:37:33;6.65;;;5.50;;
49784;SDS011;35679;38.732;-121.358;2022-08-19T03:40:23;13.93;;;5.30;;
49784;SDS011;35679;38.732;-121.358;2022-08-19T03:43:12;8.75;;;5.47;;
49784;SDS011;35679;38.732;-121.358;2022-08-19T03:46:07;6.43;;;5.30;;
49784;SDS011;35679;38.732;-121.358;2022-08-19T03:49:00;7.05;;;5.30;;
49784;SDS011;35679;38.732;-121.358;2022-08-19T03:52:00;6.00;;;5.25;;
49784;SDS011;35679;38.732;-121.358;2022-08-19T03:54:50;5.95;;;4.90;;
49784;SDS011;35679;38.732;-121.358;2022-08-19T03:57:39;6.82;;;5.00;;
49784;SDS011;35679;38.732;-121.358;2022-08-19T04:00:29;6.63;;;5.43;;
49784;SDS011;35679;38.732;-121.358;2022-08-19T04:03:19;5.70;;;5.10;;
49784;SDS011;35679;38.732;-121.358;2022-08-19T04:06:16;7.03;;;5.72;;
49784;SDS011;35679;38.732;-121.358;2022-08-19T04:09:09;6.00;;;5.32;;
49784;SDS011;35679;38.732;-121.358;2022-08-19T04:12:00;6.25;;;5.07;;
49784;SDS011;35679;38.732;-121.358;2022-08-19T04:14:49;7.93;;;4.63;;
49784;SDS011;35679;38.732;-121.358;2022-08-19T04:17:38;5.63;;;4.57;;
49784;SDS011;35679;38.732;-121.358;2022-08-19T04:20:29;6.70;;;5.13;;
49784;SDS011;35679;38.732;-121.358;2022-08-19T04:23:18;7.40;;;4.82;;
49784;SDS011;35679;38.732;-121.358;2022-08-19T04:26:11;7.40;;;5.03;;
49784;SDS011;35679;38.732;-121.358;2022-08-19T04:29:08;7.00;;;5.22;;
49784;SDS011;35679;38.732;-121.358;2022-08-19T04:32:00;7.20;;;5.22;;
49784;SDS011;35679;38.732;-121.358;2022-08-19T04:34:56;5.63;;;4.45;;
49784;SDS011;35679;38.732;-121.358;2022-08-19T04:38:04;7.82;;;4.90;;
49784;SDS011;35679;38.732;-121.358;2022-08-19T04:40:54;5.72;;;4.95;;
49784;SDS011;35679;38.732;-121.358;2022-08-19T04:44:02;9.23;;;4.70;;
49784;SDS011;35679;38.732;-121.358;2022-08-19T04:46:52;9.80;;;4.80;;
49784;SDS011;35679;38.732;-121.358;2022-08-19T04:49:41;7.25;;;5.68;;
49784;SDS011;35679;38.732;-121.358;2022-08-19T04:52:31;5.95;;;5.00;;
49784;SDS011;35679;38.732;-121.358;2022-08-19T04:55:20;6.55;;;4.60;;
49784;SDS011;35679;38.732;-121.358;2022-08-19T04:58:10;6.35;;;4.85;;
49784;SDS011;35679;38.732;-121.358;2022-08-19T05:00:59;6.28;;;4.70;;
49784;SDS011;35679;38.732;-121.358;2022-08-19T05:03:48;6.07;;;4.65;;
49784;SDS011;35679;38.732;-121.358;2022-08-19T05:06:38;6.22;;;4.57;;
49784;SDS011;35679;38.732;-121.358;2022-08-19T05:09:28;7.57;;;4.40;;
49784;SDS011;35679;38.732;-121.358;2022-08-19T05:12:38;6.68;;;4.70;;
49784;SDS011;35679;38.732;-121.358;2022-08-19T05:15:28;7.25;;;4.68;;
49784;SDS011;35679;38.732;-121.358;2022-08-19T05:18:18;5.28;;;4.43;;
49784;SDS011;35679;38.732;-121.358;2022-08-19T05:21:26;8.77;;;5.13;;
49784;SDS011;35679;38.732;-121.358;2022-08-19T05:24:35;6.90;;;5.00;;
49784;SDS011;35679;38.732;-121.358;2022-08-19T05:27:45;7.63;;;4.65;;
49784;SDS011;35679;38.732;-121.358;2022-08-19T05:30:35;5.13;;;4.20;;
49784;SDS011;35679;38.732;-121.358;2022-08-19T05:33:33;6.05;;;5.07;;
49784;SDS011;35679;38.732;-121.358;2022-08-19T05:36:24;5.72;;;4.70;;
49784;SDS011;35679;38.732;-121.358;2022-08-19T05:39:16;5.80;;;4.20;;
49784;SDS011;35679;38.732;-121.358;2022-08-19T05:42:10;7.00;;;4.50;;
49784;SDS011;35679;38.732;-121.358;2022-08-19T05:45:00;7.05;;;4.80;;
49784;SDS011;35679;38.732;-121.358;2022-08-19T05:47:50;6.55;;;4.30;;
49784;SDS011;35679;38.732;-121.358;2022-08-19T05:50:40;5.68;;;4.50;;
49784;SDS011;35679;38.732;-121.358;2022-08-19T05:53:30;6.75;;;4.13;;
49784;SDS011;35679;38.732;-121.358;2022-08-19T05:56:19;7.85;;;4.72;;
49784;SDS011;35679;38.732;-121.358;2022-08-19T05:59:09;5.18;;;4.57;;
49784;SDS011;35679;38.732;-121.358;2022-08-19T06:02:00;7.72;;;4.78;;
49784;SDS011;35679;38.732;-121.358;2022-08-19T06:04:50;5.53;;;4.53;;
49784;SDS011;35679;38.732;-121.358;2022-08-19T06:07:39;5.47;;;4.25;;
49784;SDS011;35679;38.732;-121.358;2022-08-19T06:10:29;5.72;;;4.20;;
49784;SDS011;35679;38.732;-121.358;2022-08-19T06:13:19;7.03;;;4.70;;
49784;SDS011;35679;38.732;-121.358;2022-08-19T06:16:09;5.93;;;4.30;;
49784;SDS011;35679;38.732;-121.358;2022-08-19T06:18:59;5.88;;;4.35;;
49784;SDS011;35679;38.732;-121.358;2022-08-19T06:21:52;5.97;;;4.30;;
49784;SDS011;35679;38.732;-121.358;2022-08-19T06:24:42;5.72;;;4.45;;
49784;SDS011;35679;38.732;-121.358;2022-08-19T06:27:31;5.72;;;4.03;;
49784;SDS011;35679;38.732;-121.358;2022-08-19T06:30:21;5.65;;;4.38;;
49784;SDS011;35679;38.732;-121.358;2022-08-19T06:33:11;8.63;;;4.60;;
49784;SDS011;35679;38.732;-121.358;2022-08-19T06:36:01;7.20;;;4.80;;
49784;SDS011;35679;38.732;-121.358;2022-08-19T06:38:51;5.07;;;4.20;;
49784;SDS011;35679;38.732;-121.358;2022-08-19T06:41:42;6.78;;;4.15;;
49784;SDS011;35679;38.732;-121.358;2022-08-19T06:44:39;5.50;;;3.88;;
49784;SDS011;35679;38.732;-121.358;2022-08-19T06:47:35;6.03;;;4.38;;
49784;SDS011;35679;38.732;-121.358;2022-08-19T06:50:25;5.45;;;4.40;;
49784;SDS011;35679;38.732;-121.358;2022-08-19T06:53:14;5.75;;;4.30;;
49784;SDS011;35679;38.732;-121.358;2022-08-19T06:56:04;5.20;;;4.25;;
49784;SDS011;35679;38.732;-121.358;2022-08-19T06:58:53;6.70;;;4.57;;
49784;SDS011;35679;38.732;-121.358;2022-08-19T07:01:46;5.78;;;4.45;;
49784;SDS011;35679;38.732;-121.358;2022-08-19T07:04:38;4.75;;;3.95;;
49784;SDS011;35679;38.732;-121.358;2022-08-19T07:07:28;6.55;;;4.70;;
49784;SDS011;35679;38.732;-121.358;2022-08-19T07:10:19;4.85;;;4.07;;
49784;SDS011;35679;38.732;-121.358;2022-08-19T07:13:12;5.63;;;4.50;;
49784;SDS011;35679;38.732;-121.358;2022-08-19T07:16:07;6.07;;;3.88;;
49784;SDS011;35679;38.732;-121.358;2022-08-19T07:19:15;5.82;;;3.95;;
49784;SDS011;35679;38.732;-121.358;2022-08-19T07:22:07;6.20;;;4.32;;
49784;SDS011;35679;38.732;-121.358;2022-08-19T07:24:59;4.68;;;4.15;;
49784;SDS011;35679;38.732;-121.358;2022-08-19T07:27:51;6.32;;;4.97;;
49784;SDS011;35679;38.732;-121.358;2022-08-19T07:30:40;6.50;;;4.20;;
49784;SDS011;35679;38.732;-121.358;2022-08-19T07:33:33;6.05;;;4.22;;
49784;SDS011;35679;38.732;-121.358;2022-08-19T07:36:26;5.45;;;4.28;;
49784;SDS011;35679;38.732;-121.358;2022-08-19T07:39:30;7.13;;;4.28;;
49784;SDS011;35679;38.732;-121.358;2022-08-19T07:42:23;7.13;;;4.65;;
49784;SDS011;35679;38.732;-121.358;2022-08-19T07:45:13;5.95;;;4.38;;
49784;SDS011;35679;38.732;-121.358;2022-08-19T07:48:05;5.32;;;4.68;;
49784;SDS011;35679;38.732;-121.358;2022-08-19T07:51:00;7.07;;;4.30;;
49784;SDS011;35679;38.732;-121.358;2022-08-19T07:53:52;6.68;;;4.55;;
49784;SDS011;35679;38.732;-121.358;2022-08-19T07:56:43;5.85;;;4.32;;
49784;SDS011;35679;38.732;-121.358;2022-08-19T07:59:39;5.30;;;4.18;;
49784;SDS011;35679;38.732;-121.358;2022-08-19T08:02:30;7.28;;;4.45;;
49784;SDS011;35679;38.732;-121.358;2022-08-19T08:05:20;6.78;;;4.13;;
49784;SDS011;35679;38.732;-121.358;2022-08-19T08:08:31;6.55;;;4.20;;
49784;SDS011;35679;38.732;-121.358;2022-08-19T08:11:42;5.20;;;4.00;;
49784;SDS011;35679;38.732;-121.358;2022-08-19T08:15:20;5.88;;;4.25;;
49784;SDS011;35679;38.732;-121.358;2022-08-19T08:18:11;6.82;;;4.50;;
49784;SDS011;35679;38.732;-121.358;2022-08-19T08:21:03;7.18;;;4.35;;
49784;SDS011;35679;38.732;-121.358;2022-08-19T08:23:55;5.77;;;4.57;;
49784;SDS011;35679;38.732;-121.358;2022-08-19T08:26:52;7.43;;;4.20;;
49784;SDS011;35679;38.732;-121.358;2022-08-19T08:29:45;5.53;;;4.10;;
49784;SDS011;35679;38.732;-121.358;2022-08-19T08:32:39;6.10;;;4.55;;
49784;SDS011;35679;38.732;-121.358;2022-08-19T08:35:32;7.15;;;4.72;;
49784;SDS011;35679;38.732;-121.358;2022-08-19T08:38:24;6.68;;;4.55;;
49784;SDS011;35679;38.732;-121.358;2022-08-19T08:47:32;5.43;;;4.43;;
49784;SDS011;35679;38.732;-121.358;2022-08-19T08:50:31;5.90;;;4.40;;
49784;SDS011;35679;38.732;-121.358;2022-08-19T08:53:30;8.32;;;4.72;;
49784;SDS011;35679;38.732;-121.358;2022-08-19T08:56:28;7.50;;;4.63;;
49784;SDS011;35679;38.732;-121.358;2022-08-19T08:59:28;7.03;;;4.68;;
49784;SDS011;35679;38.732;-121.358;2022-08-19T09:02:22;4.88;;;4.28;;
49784;SDS011;35679;38.732;-121.358;2022-08-19T09:05:14;6.05;;;4.72;;
49784;SDS011;35679;38.732;-121.358;2022-08-19T09:08:22;4.93;;;4.22;;
49784;SDS011;35679;38.732;-121.358;2022-08-19T09:14:46;6.40;;;4.45;;
49784;SDS011;35679;38.732;-121.358;2022-08-19T09:20:36;5.88;;;3.90;;
49784;SDS011;35679;38.732;-121.358;2022-08-19T09:23:29;5.50;;;4.60;;
49784;SDS011;35679;38.732;-121.358;2022-08-19T09:26:23;6.57;;;4.15;;
49784;SDS011;35679;38.732;-121.358;2022-08-19T09:29:34;5.87;;;4.10;;
49784;SDS011;35679;38.732;-121.358;2022-08-19T09:32:28;7.35;;;4.35;;
49784;SDS011;35679;38.732;-121.358;2022-08-19T09:35:23;5.93;;;4.28;;
49784;SDS011;35679;38.732;-121.358;2022-08-19T09:38:40;4.88;;;4.10;;
49784;SDS011;35679;38.732;-121.358;2022-08-19T09:41:32;6.07;;;4.30;;
49784;SDS011;35679;38.732;-121.358;2022-08-19T09:44:23;5.38;;;4.13;;
49784;SDS011;35679;38.732;-121.358;2022-08-19T09:47:16;6.82;;;4.03;;
49784;SDS011;35679;38.732;-121.358;2022-08-19T09:50:10;6.13;;;4.75;;
49784;SDS011;35679;38.732;-121.358;2022-08-19T09:53:03;6.75;;;4.00;;
49784;SDS011;35679;38.732;-121.358;2022-08-19T09:55:56;6.10;;;4.20;;
49784;SDS011;35679;38.732;-121.358;2022-08-19T09:58:47;7.45;;;4.90;;
49784;SDS011;35679;38.732;-121.358;2022-08-19T10:01:38;6.78;;;4.32;;
49784;SDS011;35679;38.732;-121.358;2022-08-19T10:04:33;7.35;;;4.97;;
49784;SDS011;35679;38.732;-121.358;2022-08-19T10:07:43;6.80;;;4.85;;
49784;SDS011;35679;38.732;-121.358;2022-08-19T10:10:40;6.00;;;4.40;;
49784;SDS011;35679;38.732;-121.358;2022-08-19T10:13:44;5.60;;;4.63;;
49784;SDS011;35679;38.732;-121.358;2022-08-19T10:16:35;6.68;;;4.85;;
49784;SDS011;35679;38.732;-121.358;2022-08-19T10:19:29;6.80;;;4.90;;
49784;SDS011;35679;38.732;-121.358;2022-08-19T10:22:24;7.28;;;4.90;;
49784;SDS011;35679;38.732;-121.358;2022-08-19T10:25:15;6.05;;;4.93;;
49784;SDS011;35679;38.732;-121.358;2022-08-19T10:28:05;6.20;;;4.80;;
49784;SDS011;35679;38.732;-121.358;2022-08-19T10:30:57;6.70;;;5.10;;
49784;SDS011;35679;38.732;-121.358;2022-08-19T10:33:47;5.78;;;4.85;;
49784;SDS011;35679;38.732;-121.358;2022-08-19T10:36:40;6.50;;;4.88;;
49784;SDS011;35679;38.732;-121.358;2022-08-19T10:39:45;6.90;;;4.85;;
49784;SDS011;35679;38.732;-121.358;2022-08-19T10:42:37;5.72;;;4.70;;
49784;SDS011;35679;38.732;-121.358;2022-08-19T10:45:31;5.45;;;4.45;;
49784;SDS011;35679;38.732;-121.358;2022-08-19T10:48:39;5.85;;;4.50;;
49784;SDS011;35679;38.732;-121.358;2022-08-19T10:54:40;6.10;;;4.60;;
49784;SDS011;35679;38.732;-121.358;2022-08-19T10:57:54;7.45;;;4.88;;
49784;SDS011;35679;38.732;-121.358;2022-08-19T11:00:55;6.78;;;4.18;;
49784;SDS011;35679;38.732;-121.358;2022-08-19T11:04:40;5.85;;;4.32;;
49784;SDS011;35679;38.732;-121.358;2022-08-19T11:07:38;4.80;;;4.30;;
49784;SDS011;35679;38.732;-121.358;2022-08-19T11:11:12;5.38;;;4.05;;
49784;SDS011;35679;38.732;-121.358;2022-08-19T11:14:43;5.68;;;4.68;;
49784;SDS011;35679;38.732;-121.358;2022-08-19T11:17:35;5.82;;;4.57;;
49784;SDS011;35679;38.732;-121.358;2022-08-19T11:20:40;5.63;;;4.60;;
49784;SDS011;35679;38.732;-121.358;2022-08-19T11:23:53;7.18;;;4.78;;
49784;SDS011;35679;38.732;-121.358;2022-08-19T11:26:48;6.65;;;5.03;;
49784;SDS011;35679;38.732;-121.358;2022-08-19T11:29:46;8.10;;;4.80;;
49784;SDS011;35679;38.732;-121.358;2022-08-19T11:32:38;6.95;;;5.07;;
49784;SDS011;35679;38.732;-121.358;2022-08-19T11:35:38;6.55;;;4.78;;
49784;SDS011;35679;38.732;-121.358;2022-08-19T11:38:41;7.88;;;4.60;;
49784;SDS011;35679;38.732;-121.358;2022-08-19T11:41:33;5.60;;;4.55;;
49784;SDS011;35679;38.732;-121.358;2022-08-19T11:44:27;6.28;;;4.32;;
49784;SDS011;35679;38.732;-121.358;2022-08-19T11:47:23;7.80;;;4.50;;
49784;SDS011;35679;38.732;-121.358;2022-08-19T11:50:20;5.75;;;4.32;;
49784;SDS011;35679;38.732;-121.358;2022-08-19T11:53:17;7.38;;;4.70;;
49784;SDS011;35679;38.732;-121.358;2022-08-19T11:56:12;5.53;;;4.55;;
49784;SDS011;35679;38.732;-121.358;2022-08-19T11:59:22;5.97;;;4.75;;
49784;SDS011;35679;38.732;-121.358;2022-08-19T12:05:49;6.70;;;4.45;;
49784;SDS011;35679;38.732;-121.358;2022-08-19T12:08:51;6.10;;;4.78;;
49784;SDS011;35679;38.732;-121.358;2022-08-19T12:11:50;5.43;;;4.32;;
49784;SDS011;35679;38.732;-121.358;2022-08-19T12:18:41;5.45;;;4.50;;
49784;SDS011;35679;38.732;-121.358;2022-08-19T12:21:35;5.78;;;4.25;;
49784;SDS011;35679;38.732;-121.358;2022-08-19T12:24:46;5.50;;;4.20;;
49784;SDS011;35679;38.732;-121.358;2022-08-19T12:27:41;5.68;;;4.70;;
49784;SDS011;35679;38.732;-121.358;2022-08-19T12:30:46;7.00;;;4.90;;
49784;SDS011;35679;38.732;-121.358;2022-08-19T12:33:59;5.55;;;4.70;;
49784;SDS011;35679;38.732;-121.358;2022-08-19T12:36:51;7.90;;;4.60;;
49784;SDS011;35679;38.732;-121.358;2022-08-19T12:39:43;6.60;;;4.40;;
49784;SDS011;35679;38.732;-121.358;2022-08-19T12:42:34;5.82;;;4.32;;
49784;SDS011;35679;38.732;-121.358;2022-08-19T12:45:30;5.63;;;4.43;;
49784;SDS011;35679;38.732;-121.358;2022-08-19T12:48:37;6.65;;;4.55;;
49784;SDS011;35679;38.732;-121.358;2022-08-19T12:51:30;5.25;;;4.20;;
49784;SDS011;35679;38.732;-121.358;2022-08-19T12:54:22;5.82;;;4.13;;
49784;SDS011;35679;38.732;-121.358;2022-08-19T12:57:13;5.47;;;4.30;;
49784;SDS011;35679;38.732;-121.358;2022-08-19T13:00:14;5.87;;;4.47;;
49784;SDS011;35679;38.732;-121.358;2022-08-19T13:03:06;5.30;;;4.22;;
49784;SDS011;35679;38.732;-121.358;2022-08-19T13:05:57;7.03;;;4.22;;
49784;SDS011;35679;38.732;-121.358;2022-08-19T13:08:59;5.72;;;4.30;;
49784;SDS011;35679;38.732;-121.358;2022-08-19T13:11:49;4.70;;;4.20;;
49784;SDS011;35679;38.732;-121.358;2022-08-19T13:14:38;7.53;;;4.50;;
49784;SDS011;35679;38.732;-121.358;2022-08-19T13:17:29;7.18;;;4.78;;
49784;SDS011;35679;38.732;-121.358;2022-08-19T13:20:20;6.18;;;4.20;;
49784;SDS011;35679;38.732;-121.358;2022-08-19T13:23:09;5.60;;;4.57;;
49784;SDS011;35679;38.732;-121.358;2022-08-19T13:26:05;6.55;;;4.07;;
49784;SDS011;35679;38.732;-121.358;2022-08-19T13:29:20;5.90;;;4.10;;
49784;SDS011;35679;38.732;-121.358;2022-08-19T13:32:31;6.28;;;4.35;;
49784;SDS011;35679;38.732;-121.358;2022-08-19T13:35:51;6.32;;;4.10;;
49784;SDS011;35679;38.732;-121.358;2022-08-19T13:38:45;5.93;;;4.57;;
49784;SDS011;35679;38.732;-121.358;2022-08-19T13:41:35;6.20;;;4.43;;
49784;SDS011;35679;38.732;-121.358;2022-08-19T13:44:26;5.65;;;4.20;;
49784;SDS011;35679;38.732;-121.358;2022-08-19T13:47:19;4.18;;;3.65;;
49784;SDS011;35679;38.732;-121.358;2022-08-19T13:50:12;7.28;;;4.75;;
49784;SDS011;35679;38.732;-121.358;2022-08-19T13:53:03;7.70;;;4.60;;
49784;SDS011;35679;38.732;-121.358;2022-08-19T13:55:53;7.18;;;4.05;;
49784;SDS011;35679;38.732;-121.358;2022-08-19T13:58:44;5.80;;;3.92;;
49784;SDS011;35679;38.732;-121.358;2022-08-19T14:01:34;7.88;;;4.38;;
49784;SDS011;35679;38.732;-121.358;2022-08-19T14:04:24;6.57;;;4.15;;
49784;SDS011;35679;38.732;-121.358;2022-08-19T14:07:14;6.50;;;4.07;;
49784;SDS011;35679;38.732;-121.358;2022-08-19T14:10:07;5.28;;;4.20;;
49784;SDS011;35679;38.732;-121.358;2022-08-19T14:12:59;5.50;;;4.05;;
49784;SDS011;35679;38.732;-121.358;2022-08-19T14:15:50;6.50;;;3.95;;
49784;SDS011;35679;38.732;-121.358;2022-08-19T14:18:41;4.25;;;3.80;;
49784;SDS011;35679;38.732;-121.358;2022-08-19T14:21:31;4.65;;;3.90;;
49784;SDS011;35679;38.732;-121.358;2022-08-19T14:24:28;5.22;;;3.72;;
49784;SDS011;35679;38.732;-121.358;2022-08-19T14:27:17;4.65;;;3.78;;
49784;SDS011;35679;38.732;-121.358;2022-08-19T14:30:07;4.60;;;3.67;;
49784;SDS011;35679;38.732;-121.358;2022-08-19T14:33:01;5.18;;;3.95;;
49784;SDS011;35679;38.732;-121.358;2022-08-19T14:35:51;3.53;;;3.22;;
49784;SDS011;35679;38.732;-121.358;2022-08-19T14:38:47;5.50;;;3.75;;
49784;SDS011;35679;38.732;-121.358;2022-08-19T14:41:39;5.57;;;4.10;;
49784;SDS011;35679;38.732;-121.358;2022-08-19T14:44:30;4.88;;;3.97;;
49784;SDS011;35679;38.732;-121.358;2022-08-19T14:47:20;4.78;;;4.28;;
49784;SDS011;35679;38.732;-121.358;2022-08-19T14:50:10;8.43;;;4.35;;
49784;SDS011;35679;38.732;-121.358;2022-08-19T14:53:06;4.13;;;3.40;;
49784;SDS011;35679;38.732;-121.358;2022-08-19T14:55:59;4.60;;;3.67;;
49784;SDS011;35679;38.732;-121.358;2022-08-19T14:58:49;4.78;;;3.70;;
49784;SDS011;35679;38.732;-121.358;2022-08-19T15:01:40;4.90;;;3.72;;
49784;SDS011;35679;38.732;-121.358;2022-08-19T15:04:29;7.55;;;4.05;;
49784;SDS011;35679;38.732;-121.358;2022-08-19T15:07:20;4.00;;;3.60;;
49784;SDS011;35679;38.732;-121.358;2022-08-19T15:10:14;4.82;;;3.67;;
49784;SDS011;35679;38.732;-121.358;2022-08-19T15:13:04;4.97;;;4.10;;
49784;SDS011;35679;38.732;-121.358;2022-08-19T15:15:54;4.00;;;3.60;;
49784;SDS011;35679;38.732;-121.358;2022-08-19T15:18:46;4.13;;;3.72;;
49784;SDS011;35679;38.732;-121.358;2022-08-19T15:21:38;4.38;;;3.40;;
49784;SDS011;35679;38.732;-121.358;2022-08-19T15:24:27;5.03;;;3.92;;
49784;SDS011;35679;38.732;-121.358;2022-08-19T15:27:17;5.65;;;3.97;;
49784;SDS011;35679;38.732;-121.358;2022-08-19T15:30:07;4.55;;;3.58;;
49784;SDS011;35679;38.732;-121.358;2022-08-19T15:32:57;5.68;;;3.70;;
49784;SDS011;35679;38.732;-121.358;2022-08-19T15:35:47;4.63;;;3.67;;
49784;SDS011;35679;38.732;-121.358;2022-08-19T15:38:39;5.68;;;3.97;;
49784;SDS011;35679;38.732;-121.358;2022-08-19T15:41:33;4.05;;;3.50;;
49784;SDS011;35679;38.732;-121.358;2022-08-19T15:44:23;4.38;;;3.95;;
49784;SDS011;35679;38.732;-121.358;2022-08-19T15:47:13;4.40;;;3.72;;
49784;SDS011;35679;38.732;-121.358;2022-08-19T15:50:10;4.13;;;3.70;;
49784;SDS011;35679;38.732;-121.358;2022-08-19T15:53:03;4.45;;;3.78;;
49784;SDS011;35679;38.732;-121.358;2022-08-19T15:55:57;4.53;;;3.90;;
49784;SDS011;35679;38.732;-121.358;2022-08-19T15:58:46;6.15;;;3.75;;
49784;SDS011;35679;38.732;-121.358;2022-08-19T16:01:54;5.50;;;4.10;;
49784;SDS011;35679;38.732;-121.358;2022-08-19T16:05:04;4.15;;;3.70;;
49784;SDS011;35679;38.732;-121.358;2022-08-19T16:08:14;5.20;;;4.07;;
49784;SDS011;35679;38.732;-121.358;2022-08-19T16:11:03;5.03;;;3.85;;
49784;SDS011;35679;38.732;-121.358;2022-08-19T16:13:53;4.82;;;3.88;;
49784;SDS011;35679;38.732;-121.358;2022-08-19T16:19:35;3.97;;;3.25;;
49784;SDS011;35679;38.732;-121.358;2022-08-19T16:22:29;5.07;;;4.00;;
49784;SDS011;35679;38.732;-121.358;2022-08-19T16:25:19;4.80;;;3.80;;
49784;SDS011;35679;38.732;-121.358;2022-08-19T16:28:11;4.78;;;3.72;;
49784;SDS011;35679;38.732;-121.358;2022-08-19T16:31:00;4.03;;;3.63;;
49784;SDS011;35679;38.732;-121.358;2022-08-19T16:33:49;4.38;;;3.83;;
49784;SDS011;35679;38.732;-121.358;2022-08-19T16:36:39;5.45;;;3.67;;
49784;SDS011;35679;38.732;-121.358;2022-08-19T16:39:30;4.57;;;3.80;;
49784;SDS011;35679;38.732;-121.358;2022-08-19T16:42:22;4.40;;;3.70;;
49784;SDS011;35679;38.732;-121.358;2022-08-19T16:45:12;5.00;;;3.90;;
49784;SDS011;35679;38.732;-121.358;2022-08-19T16:48:01;3.88;;;3.45;;
49784;SDS011;35679;38.732;-121.358;2022-08-19T16:50:51;4.15;;;3.33;;
49784;SDS011;35679;38.732;-121.358;2022-08-19T16:53:41;4.13;;;3.50;;
49784;SDS011;35679;38.732;-121.358;2022-08-19T16:56:32;5.22;;;3.30;;
49784;SDS011;35679;38.732;-121.358;2022-08-19T16:59:22;5.47;;;3.30;;
49784;SDS011;35679;38.732;-121.358;2022-08-19T17:02:12;3.92;;;3.35;;
49784;SDS011;35679;38.732;-121.358;2022-08-19T17:05:02;4.10;;;3.60;;
49784;SDS011;35679;38.732;-121.358;2022-08-19T17:07:51;4.00;;;3.35;;
49784;SDS011;35679;38.732;-121.358;2022-08-19T17:10:41;4.10;;;3.30;;